sensor_id;sensor_type;location;lat;lon;timestamp;P1;durP1;ratioP1;P2;durP2;ratioP2
18449;SDS011;9354;50.194;7.690;2023-07-20T00:00:17;5.37;;;2.27;;
18449;SDS011;9354;50.194;7.690;2023-07-20T00:02:45;8.10;;;2.10;;
18449;SDS011;9354;50.194;7.690;2023-07-20T00:05:18;7.40;;;2.43;;
18449;SDS011;9354;50.194;7.690;2023-07-20T00:07:47;5.87;;;2.80;;
18449;SDS011;9354;50.194;7.690;2023-07-20T00:10:17;3.83;;;1.97;;
18449;SDS011;9354;50.194;7.690;2023-07-20T00:12:44;5.77;;;2.37;;
18449;SDS011;9354;50.194;7.690;2023-07-20T00:15:13;6.47;;;2.43;;
18449;SDS011;9354;50.194;7.690;2023-07-20T00:17:40;6.70;;;2.27;;
18449;SDS011;9354;50.194;7.690;2023-07-20T00:20:08;4.33;;;2.07;;
18449;SDS011;9354;50.194;7.690;2023-07-20T00:22:38;8.23;;;2.10;;
18449;SDS011;9354;50.194;7.690;2023-07-20T00:25:05;6.83;;;2.50;;
18449;SDS011;9354;50.194;7.690;2023-07-20T00:27:33;6.73;;;2.37;;
18449;SDS011;9354;50.194;7.690;2023-07-20T00:30:00;6.37;;;2.17;;
18449;SDS011;9354;50.194;7.690;2023-07-20T00:32:28;6.50;;;2.20;;
18449;SDS011;9354;50.194;7.690;2023-07-20T00:34:55;7.60;;;2.30;;
18449;SDS011;9354;50.194;7.690;2023-07-20T00:37:23;4.40;;;2.20;;
18449;SDS011;9354;50.194;7.690;2023-07-20T00:39:52;3.90;;;2.00;;
18449;SDS011;9354;50.194;7.690;2023-07-20T00:42:20;4.23;;;2.23;;
18449;SDS011;9354;50.194;7.690;2023-07-20T00:44:47;2.87;;;1.80;;
18449;SDS011;9354;50.194;7.690;2023-07-20T00:47:15;4.17;;;2.17;;
18449;SDS011;9354;50.194;7.690;2023-07-20T00:49:42;4.73;;;2.40;;
18449;SDS011;9354;50.194;7.690;2023-07-20T00:52:10;7.03;;;2.33;;
18449;SDS011;9354;50.194;7.690;2023-07-20T00:54:40;3.57;;;1.83;;
18449;SDS011;9354;50.194;7.690;2023-07-20T00:57:09;6.40;;;2.10;;
18449;SDS011;9354;50.194;7.690;2023-07-20T00:59:40;7.10;;;2.33;;
18449;SDS011;9354;50.194;7.690;2023-07-20T01:02:08;4.07;;;2.27;;
18449;SDS011;9354;50.194;7.690;2023-07-20T01:04:35;6.43;;;2.20;;
18449;SDS011;9354;50.194;7.690;2023-07-20T01:07:06;7.00;;;2.37;;
18449;SDS011;9354;50.194;7.690;2023-07-20T01:09:39;9.03;;;2.80;;
18449;SDS011;9354;50.194;7.690;2023-07-20T01:12:13;6.00;;;2.10;;
18449;SDS011;9354;50.194;7.690;2023-07-20T01:14:49;11.03;;;2.20;;
18449;SDS011;9354;50.194;7.690;2023-07-20T01:17:17;3.73;;;2.10;;
18449;SDS011;9354;50.194;7.690;2023-07-20T01:19:45;6.17;;;2.63;;
18449;SDS011;9354;50.194;7.690;2023-07-20T01:22:15;10.03;;;2.30;;
18449;SDS011;9354;50.194;7.690;2023-07-20T01:25:07;5.17;;;1.80;;
18449;SDS011;9354;50.194;7.690;2023-07-20T01:30:50;5.27;;;2.20;;
18449;SDS011;9354;50.194;7.690;2023-07-20T01:33:24;4.53;;;1.90;;
18449;SDS011;9354;50.194;7.690;2023-07-20T01:35:53;5.27;;;2.00;;
18449;SDS011;9354;50.194;7.690;2023-07-20T01:38:23;5.97;;;2.27;;
18449;SDS011;9354;50.194;7.690;2023-07-20T01:40:51;4.70;;;2.10;;
18449;SDS011;9354;50.194;7.690;2023-07-20T01:43:19;4.20;;;1.87;;
18449;SDS011;9354;50.194;7.690;2023-07-20T01:45:46;5.47;;;2.10;;
18449;SDS011;9354;50.194;7.690;2023-07-20T01:48:14;4.57;;;1.97;;
18449;SDS011;9354;50.194;7.690;2023-07-20T01:50:43;5.10;;;2.10;;
18449;SDS011;9354;50.194;7.690;2023-07-20T01:53:10;4.23;;;1.83;;
18449;SDS011;9354;50.194;7.690;2023-07-20T01:55:38;6.40;;;2.30;;
18449;SDS011;9354;50.194;7.690;2023-07-20T01:58:05;6.63;;;2.23;;
18449;SDS011;9354;50.194;7.690;2023-07-20T02:00:33;8.03;;;2.57;;
18449;SDS011;9354;50.194;7.690;2023-07-20T02:03:00;4.10;;;2.10;;
18449;SDS011;9354;50.194;7.690;2023-07-20T02:05:27;6.43;;;2.33;;
18449;SDS011;9354;50.194;7.690;2023-07-20T02:07:56;5.50;;;2.17;;
18449;SDS011;9354;50.194;7.690;2023-07-20T02:10:24;7.17;;;2.13;;
18449;SDS011;9354;50.194;7.690;2023-07-20T02:12:51;4.80;;;2.07;;
18449;SDS011;9354;50.194;7.690;2023-07-20T02:15:18;4.67;;;1.93;;
18449;SDS011;9354;50.194;7.690;2023-07-20T02:17:46;5.27;;;1.93;;
18449;SDS011;9354;50.194;7.690;2023-07-20T02:20:14;4.20;;;1.80;;
18449;SDS011;9354;50.194;7.690;2023-07-20T02:22:41;4.47;;;2.10;;
18449;SDS011;9354;50.194;7.690;2023-07-20T02:25:10;5.90;;;2.40;;
18449;SDS011;9354;50.194;7.690;2023-07-20T02:27:37;5.83;;;2.20;;
18449;SDS011;9354;50.194;7.690;2023-07-20T02:30:05;5.90;;;2.40;;
18449;SDS011;9354;50.194;7.690;2023-07-20T02:32:34;7.03;;;2.40;;
18449;SDS011;9354;50.194;7.690;2023-07-20T02:35:03;6.23;;;2.20;;
18449;SDS011;9354;50.194;7.690;2023-07-20T02:37:31;4.40;;;2.40;;
18449;SDS011;9354;50.194;7.690;2023-07-20T02:39:59;6.70;;;2.27;;
18449;SDS011;9354;50.194;7.690;2023-07-20T02:42:28;4.03;;;2.23;;
18449;SDS011;9354;50.194;7.690;2023-07-20T02:44:55;8.10;;;2.07;;
18449;SDS011;9354;50.194;7.690;2023-07-20T02:47:23;7.00;;;1.93;;
18449;SDS011;9354;50.194;7.690;2023-07-20T02:49:50;6.77;;;2.57;;
18449;SDS011;9354;50.194;7.690;2023-07-20T02:52:18;6.23;;;2.20;;
18449;SDS011;9354;50.194;7.690;2023-07-20T02:54:45;7.63;;;2.43;;
18449;SDS011;9354;50.194;7.690;2023-07-20T02:57:13;6.17;;;2.10;;
18449;SDS011;9354;50.194;7.690;2023-07-20T02:59:41;4.97;;;1.90;;
18449;SDS011;9354;50.194;7.690;2023-07-20T03:02:09;6.03;;;2.40;;
18449;SDS011;9354;50.194;7.690;2023-07-20T03:04:36;4.40;;;1.77;;
18449;SDS011;9354;50.194;7.690;2023-07-20T03:07:04;6.53;;;2.17;;
18449;SDS011;9354;50.194;7.690;2023-07-20T03:09:32;5.60;;;1.80;;
18449;SDS011;9354;50.194;7.690;2023-07-20T03:12:00;6.07;;;1.80;;
18449;SDS011;9354;50.194;7.690;2023-07-20T03:14:27;7.50;;;2.30;;
18449;SDS011;9354;50.194;7.690;2023-07-20T03:16:56;4.70;;;2.10;;
18449;SDS011;9354;50.194;7.690;2023-07-20T03:19:23;4.27;;;2.10;;
18449;SDS011;9354;50.194;7.690;2023-07-20T03:21:51;3.83;;;1.80;;
18449;SDS011;9354;50.194;7.690;2023-07-20T03:24:18;2.90;;;1.80;;
18449;SDS011;9354;50.194;7.690;2023-07-20T03:26:46;6.37;;;1.80;;
18449;SDS011;9354;50.194;7.690;2023-07-20T03:29:13;5.07;;;2.30;;
18449;SDS011;9354;50.194;7.690;2023-07-20T03:31:41;6.80;;;2.30;;
18449;SDS011;9354;50.194;7.690;2023-07-20T03:34:10;4.70;;;2.07;;
18449;SDS011;9354;50.194;7.690;2023-07-20T03:36:37;7.87;;;2.40;;
18449;SDS011;9354;50.194;7.690;2023-07-20T03:39:05;9.27;;;2.37;;
18449;SDS011;9354;50.194;7.690;2023-07-20T03:41:32;7.13;;;2.07;;
18449;SDS011;9354;50.194;7.690;2023-07-20T03:44:00;3.20;;;1.97;;
18449;SDS011;9354;50.194;7.690;2023-07-20T03:46:27;6.67;;;1.80;;
18449;SDS011;9354;50.194;7.690;2023-07-20T03:48:55;5.33;;;2.17;;
18449;SDS011;9354;50.194;7.690;2023-07-20T03:51:23;5.63;;;2.40;;
18449;SDS011;9354;50.194;7.690;2023-07-20T03:53:51;2.63;;;1.63;;
18449;SDS011;9354;50.194;7.690;2023-07-20T03:56:18;3.77;;;2.00;;
18449;SDS011;9354;50.194;7.690;2023-07-20T03:58:46;4.10;;;2.00;;
18449;SDS011;9354;50.194;7.690;2023-07-20T04:01:13;3.60;;;1.70;;
18449;SDS011;9354;50.194;7.690;2023-07-20T04:03:42;5.50;;;1.97;;
18449;SDS011;9354;50.194;7.690;2023-07-20T04:06:09;4.80;;;2.23;;
18449;SDS011;9354;50.194;7.690;2023-07-20T04:08:38;5.00;;;2.00;;
18449;SDS011;9354;50.194;7.690;2023-07-20T04:11:06;5.63;;;2.60;;
18449;SDS011;9354;50.194;7.690;2023-07-20T04:13:33;5.30;;;2.30;;
18449;SDS011;9354;50.194;7.690;2023-07-20T04:16:01;5.27;;;2.13;;
18449;SDS011;9354;50.194;7.690;2023-07-20T04:18:28;4.87;;;2.30;;
18449;SDS011;9354;50.194;7.690;2023-07-20T04:20:56;5.20;;;2.33;;
18449;SDS011;9354;50.194;7.690;2023-07-20T04:23:23;5.10;;;1.97;;
18449;SDS011;9354;50.194;7.690;2023-07-20T04:25:52;4.17;;;1.90;;
18449;SDS011;9354;50.194;7.690;2023-07-20T04:28:19;5.87;;;2.10;;
18449;SDS011;9354;50.194;7.690;2023-07-20T04:30:48;7.87;;;2.40;;
18449;SDS011;9354;50.194;7.690;2023-07-20T04:33:16;4.50;;;2.00;;
18449;SDS011;9354;50.194;7.690;2023-07-20T04:35:50;4.13;;;1.83;;
18449;SDS011;9354;50.194;7.690;2023-07-20T04:38:18;6.67;;;2.30;;
18449;SDS011;9354;50.194;7.690;2023-07-20T04:40:47;6.67;;;2.07;;
18449;SDS011;9354;50.194;7.690;2023-07-20T04:43:17;6.90;;;1.67;;
18449;SDS011;9354;50.194;7.690;2023-07-20T04:45:45;6.87;;;2.07;;
18449;SDS011;9354;50.194;7.690;2023-07-20T04:48:13;7.90;;;2.10;;
18449;SDS011;9354;50.194;7.690;2023-07-20T04:50:42;5.07;;;2.40;;
18449;SDS011;9354;50.194;7.690;2023-07-20T04:53:11;6.00;;;2.20;;
18449;SDS011;9354;50.194;7.690;2023-07-20T04:55:38;5.73;;;2.20;;
18449;SDS011;9354;50.194;7.690;2023-07-20T04:58:07;5.13;;;2.33;;
18449;SDS011;9354;50.194;7.690;2023-07-20T05:00:37;6.27;;;2.20;;
18449;SDS011;9354;50.194;7.690;2023-07-20T05:03:05;3.30;;;1.80;;
18449;SDS011;9354;50.194;7.690;2023-07-20T05:05:32;6.80;;;2.07;;
18449;SDS011;9354;50.194;7.690;2023-07-20T05:08:00;4.43;;;2.07;;
18449;SDS011;9354;50.194;7.690;2023-07-20T05:10:27;9.30;;;2.33;;
18449;SDS011;9354;50.194;7.690;2023-07-20T05:12:54;4.70;;;2.10;;
18449;SDS011;9354;50.194;7.690;2023-07-20T05:15:22;4.50;;;2.20;;
18449;SDS011;9354;50.194;7.690;2023-07-20T05:17:51;5.87;;;2.17;;
18449;SDS011;9354;50.194;7.690;2023-07-20T05:20:18;6.83;;;3.57;;
18449;SDS011;9354;50.194;7.690;2023-07-20T05:22:46;5.83;;;2.10;;
18449;SDS011;9354;50.194;7.690;2023-07-20T05:25:14;5.83;;;2.03;;
18449;SDS011;9354;50.194;7.690;2023-07-20T05:27:44;4.50;;;2.20;;
18449;SDS011;9354;50.194;7.690;2023-07-20T05:30:11;6.50;;;2.33;;
18449;SDS011;9354;50.194;7.690;2023-07-20T05:32:39;6.43;;;2.17;;
18449;SDS011;9354;50.194;7.690;2023-07-20T05:35:08;5.43;;;2.13;;
18449;SDS011;9354;50.194;7.690;2023-07-20T05:37:37;6.17;;;2.27;;
18449;SDS011;9354;50.194;7.690;2023-07-20T05:40:05;5.70;;;2.33;;
18449;SDS011;9354;50.194;7.690;2023-07-20T05:42:33;3.43;;;2.03;;
18449;SDS011;9354;50.194;7.690;2023-07-20T05:45:00;3.53;;;2.00;;
18449;SDS011;9354;50.194;7.690;2023-07-20T05:47:28;5.67;;;2.00;;
18449;SDS011;9354;50.194;7.690;2023-07-20T05:49:55;7.90;;;2.17;;
18449;SDS011;9354;50.194;7.690;2023-07-20T05:52:24;6.07;;;2.20;;
18449;SDS011;9354;50.194;7.690;2023-07-20T05:54:51;5.27;;;1.80;;
18449;SDS011;9354;50.194;7.690;2023-07-20T05:57:19;4.63;;;1.90;;
18449;SDS011;9354;50.194;7.690;2023-07-20T05:59:46;6.57;;;2.20;;
18449;SDS011;9354;50.194;7.690;2023-07-20T06:02:13;4.50;;;1.90;;
18449;SDS011;9354;50.194;7.690;2023-07-20T06:04:41;4.80;;;2.10;;
18449;SDS011;9354;50.194;7.690;2023-07-20T06:07:08;6.40;;;2.37;;
18449;SDS011;9354;50.194;7.690;2023-07-20T06:09:37;3.63;;;1.77;;
18449;SDS011;9354;50.194;7.690;2023-07-20T06:12:05;7.10;;;1.60;;
18449;SDS011;9354;50.194;7.690;2023-07-20T06:14:33;8.23;;;2.30;;
18449;SDS011;9354;50.194;7.690;2023-07-20T06:17:00;3.40;;;2.10;;
18449;SDS011;9354;50.194;7.690;2023-07-20T06:19:28;5.77;;;2.10;;
18449;SDS011;9354;50.194;7.690;2023-07-20T06:21:55;5.90;;;2.50;;
18449;SDS011;9354;50.194;7.690;2023-07-20T06:24:23;6.60;;;2.03;;
18449;SDS011;9354;50.194;7.690;2023-07-20T06:26:51;6.70;;;2.10;;
18449;SDS011;9354;50.194;7.690;2023-07-20T06:29:19;4.70;;;1.73;;
18449;SDS011;9354;50.194;7.690;2023-07-20T06:31:46;5.43;;;2.10;;
18449;SDS011;9354;50.194;7.690;2023-07-20T06:34:13;5.27;;;2.10;;
18449;SDS011;9354;50.194;7.690;2023-07-20T06:36:41;6.27;;;2.10;;
18449;SDS011;9354;50.194;7.690;2023-07-20T06:39:08;7.17;;;2.23;;
18449;SDS011;9354;50.194;7.690;2023-07-20T06:41:36;4.87;;;2.23;;
18449;SDS011;9354;50.194;7.690;2023-07-20T06:44:04;7.80;;;2.17;;
18449;SDS011;9354;50.194;7.690;2023-07-20T06:46:33;7.10;;;2.97;;
18449;SDS011;9354;50.194;7.690;2023-07-20T06:49:01;5.80;;;2.20;;
18449;SDS011;9354;50.194;7.690;2023-07-20T06:51:28;6.27;;;2.50;;
18449;SDS011;9354;50.194;7.690;2023-07-20T06:53:55;4.07;;;1.83;;
18449;SDS011;9354;50.194;7.690;2023-07-20T06:56:23;6.57;;;2.00;;
18449;SDS011;9354;50.194;7.690;2023-07-20T06:58:50;5.63;;;2.30;;
18449;SDS011;9354;50.194;7.690;2023-07-20T07:01:19;6.17;;;2.17;;
18449;SDS011;9354;50.194;7.690;2023-07-20T07:03:47;8.00;;;2.03;;
18449;SDS011;9354;50.194;7.690;2023-07-20T07:06:14;6.53;;;2.50;;
18449;SDS011;9354;50.194;7.690;2023-07-20T07:08:41;4.23;;;2.03;;
18449;SDS011;9354;50.194;7.690;2023-07-20T07:11:10;5.43;;;2.20;;
18449;SDS011;9354;50.194;7.690;2023-07-20T07:13:37;6.87;;;1.97;;
18449;SDS011;9354;50.194;7.690;2023-07-20T07:16:05;9.03;;;2.23;;
18449;SDS011;9354;50.194;7.690;2023-07-20T07:18:33;3.80;;;1.93;;
18449;SDS011;9354;50.194;7.690;2023-07-20T07:21:01;4.00;;;1.77;;
18449;SDS011;9354;50.194;7.690;2023-07-20T07:23:28;3.60;;;1.93;;
18449;SDS011;9354;50.194;7.690;2023-07-20T07:25:55;7.60;;;2.27;;
18449;SDS011;9354;50.194;7.690;2023-07-20T07:28:23;9.30;;;2.60;;
18449;SDS011;9354;50.194;7.690;2023-07-20T07:30:50;3.93;;;1.90;;
18449;SDS011;9354;50.194;7.690;2023-07-20T07:33:18;7.70;;;2.53;;
18449;SDS011;9354;50.194;7.690;2023-07-20T07:35:46;4.40;;;2.47;;
18449;SDS011;9354;50.194;7.690;2023-07-20T07:38:14;6.20;;;2.80;;
18449;SDS011;9354;50.194;7.690;2023-07-20T07:40:41;6.73;;;2.83;;
18449;SDS011;9354;50.194;7.690;2023-07-20T07:43:09;5.17;;;2.53;;
18449;SDS011;9354;50.194;7.690;2023-07-20T07:45:36;6.37;;;2.50;;
18449;SDS011;9354;50.194;7.690;2023-07-20T07:48:04;6.50;;;2.60;;
18449;SDS011;9354;50.194;7.690;2023-07-20T07:50:32;5.07;;;2.60;;
18449;SDS011;9354;50.194;7.690;2023-07-20T07:53:01;5.27;;;2.30;;
18449;SDS011;9354;50.194;7.690;2023-07-20T07:55:28;4.90;;;2.30;;
18449;SDS011;9354;50.194;7.690;2023-07-20T07:57:56;7.30;;;2.60;;
18449;SDS011;9354;50.194;7.690;2023-07-20T08:00:23;5.60;;;2.20;;
18449;SDS011;9354;50.194;7.690;2023-07-20T08:02:51;6.93;;;2.43;;
18449;SDS011;9354;50.194;7.690;2023-07-20T08:05:18;7.03;;;2.53;;
18449;SDS011;9354;50.194;7.690;2023-07-20T08:07:45;3.77;;;2.30;;
18449;SDS011;9354;50.194;7.690;2023-07-20T08:10:14;6.20;;;1.90;;
18449;SDS011;9354;50.194;7.690;2023-07-20T08:12:42;4.67;;;2.27;;
18449;SDS011;9354;50.194;7.690;2023-07-20T08:15:10;6.53;;;2.20;;
18449;SDS011;9354;50.194;7.690;2023-07-20T08:17:40;6.90;;;2.00;;
18449;SDS011;9354;50.194;7.690;2023-07-20T08:20:08;4.50;;;2.10;;
18449;SDS011;9354;50.194;7.690;2023-07-20T08:22:37;4.63;;;1.90;;
18449;SDS011;9354;50.194;7.690;2023-07-20T08:25:05;5.03;;;2.20;;
18449;SDS011;9354;50.194;7.690;2023-07-20T08:27:35;4.20;;;1.90;;
18449;SDS011;9354;50.194;7.690;2023-07-20T08:30:03;3.97;;;2.20;;
18449;SDS011;9354;50.194;7.690;2023-07-20T08:32:32;4.00;;;1.90;;
18449;SDS011;9354;50.194;7.690;2023-07-20T08:34:59;4.40;;;1.90;;
18449;SDS011;9354;50.194;7.690;2023-07-20T08:37:27;6.00;;;2.40;;
18449;SDS011;9354;50.194;7.690;2023-07-20T08:39:54;7.93;;;2.20;;
18449;SDS011;9354;50.194;7.690;2023-07-20T08:42:22;6.53;;;1.93;;
18449;SDS011;9354;50.194;7.690;2023-07-20T08:44:51;2.40;;;1.70;;
18449;SDS011;9354;50.194;7.690;2023-07-20T08:47:19;3.00;;;1.70;;
18449;SDS011;9354;50.194;7.690;2023-07-20T08:49:48;6.33;;;1.90;;
18449;SDS011;9354;50.194;7.690;2023-07-20T08:52:16;4.53;;;2.00;;
18449;SDS011;9354;50.194;7.690;2023-07-20T08:54:43;6.23;;;1.50;;
18449;SDS011;9354;50.194;7.690;2023-07-20T08:57:11;3.47;;;1.90;;
18449;SDS011;9354;50.194;7.690;2023-07-20T08:59:41;5.77;;;2.30;;
18449;SDS011;9354;50.194;7.690;2023-07-20T09:02:11;3.53;;;1.70;;
18449;SDS011;9354;50.194;7.690;2023-07-20T09:04:44;5.67;;;1.80;;
18449;SDS011;9354;50.194;7.690;2023-07-20T09:07:11;7.97;;;1.70;;
18449;SDS011;9354;50.194;7.690;2023-07-20T09:09:40;4.93;;;1.90;;
18449;SDS011;9354;50.194;7.690;2023-07-20T09:12:12;2.67;;;1.60;;
18449;SDS011;9354;50.194;7.690;2023-07-20T09:14:42;5.60;;;1.90;;
18449;SDS011;9354;50.194;7.690;2023-07-20T09:17:13;5.23;;;1.80;;
18449;SDS011;9354;50.194;7.690;2023-07-20T09:19:47;3.60;;;1.80;;
18449;SDS011;9354;50.194;7.690;2023-07-20T09:22:15;4.37;;;2.03;;
18449;SDS011;9354;50.194;7.690;2023-07-20T09:24:43;4.77;;;2.07;;
18449;SDS011;9354;50.194;7.690;2023-07-20T09:27:10;6.40;;;1.90;;
18449;SDS011;9354;50.194;7.690;2023-07-20T09:29:47;3.50;;;1.80;;
18449;SDS011;9354;50.194;7.690;2023-07-20T09:32:17;3.87;;;2.00;;
18449;SDS011;9354;50.194;7.690;2023-07-20T09:34:46;3.60;;;1.97;;
18449;SDS011;9354;50.194;7.690;2023-07-20T09:37:13;5.90;;;1.83;;
18449;SDS011;9354;50.194;7.690;2023-07-20T09:39:46;5.97;;;2.10;;
18449;SDS011;9354;50.194;7.690;2023-07-20T09:42:14;5.17;;;2.20;;
18449;SDS011;9354;50.194;7.690;2023-07-20T09:44:43;3.97;;;1.97;;
18449;SDS011;9354;50.194;7.690;2023-07-20T09:47:11;6.00;;;2.13;;
18449;SDS011;9354;50.194;7.690;2023-07-20T09:49:40;3.77;;;2.13;;
18449;SDS011;9354;50.194;7.690;2023-07-20T09:52:08;3.70;;;1.70;;
18449;SDS011;9354;50.194;7.690;2023-07-20T09:54:37;5.17;;;1.90;;
18449;SDS011;9354;50.194;7.690;2023-07-20T09:57:06;3.03;;;1.70;;
18449;SDS011;9354;50.194;7.690;2023-07-20T09:59:34;4.30;;;2.10;;
18449;SDS011;9354;50.194;7.690;2023-07-20T10:02:02;2.93;;;2.00;;
18449;SDS011;9354;50.194;7.690;2023-07-20T10:04:40;3.27;;;1.63;;
18449;SDS011;9354;50.194;7.690;2023-07-20T10:07:10;5.90;;;2.00;;
18449;SDS011;9354;50.194;7.690;2023-07-20T10:09:39;4.17;;;2.10;;
18449;SDS011;9354;50.194;7.690;2023-07-20T10:12:07;4.50;;;2.10;;
18449;SDS011;9354;50.194;7.690;2023-07-20T10:14:36;3.90;;;1.70;;
18449;SDS011;9354;50.194;7.690;2023-07-20T10:17:08;4.03;;;1.80;;
18449;SDS011;9354;50.194;7.690;2023-07-20T10:19:39;5.13;;;1.77;;
18449;SDS011;9354;50.194;7.690;2023-07-20T10:22:14;4.33;;;2.20;;
18449;SDS011;9354;50.194;7.690;2023-07-20T10:24:45;4.27;;;2.10;;
18449;SDS011;9354;50.194;7.690;2023-07-20T10:27:14;3.73;;;1.93;;
18449;SDS011;9354;50.194;7.690;2023-07-20T10:29:41;6.93;;;1.97;;
18449;SDS011;9354;50.194;7.690;2023-07-20T10:32:09;5.67;;;2.73;;
18449;SDS011;9354;50.194;7.690;2023-07-20T10:34:38;2.93;;;1.80;;
18449;SDS011;9354;50.194;7.690;2023-07-20T10:37:07;4.03;;;1.90;;
18449;SDS011;9354;50.194;7.690;2023-07-20T10:39:35;4.20;;;2.00;;
18449;SDS011;9354;50.194;7.690;2023-07-20T10:42:02;3.70;;;1.90;;
18449;SDS011;9354;50.194;7.690;2023-07-20T10:44:33;7.37;;;1.80;;
18449;SDS011;9354;50.194;7.690;2023-07-20T10:47:06;2.37;;;1.50;;
18449;SDS011;9354;50.194;7.690;2023-07-20T10:49:39;3.40;;;1.60;;
18449;SDS011;9354;50.194;7.690;2023-07-20T10:52:29;4.13;;;1.60;;
18449;SDS011;9354;50.194;7.690;2023-07-20T10:55:09;3.07;;;1.60;;
18449;SDS011;9354;50.194;7.690;2023-07-20T10:57:38;5.07;;;1.93;;
18449;SDS011;9354;50.194;7.690;2023-07-20T11:00:12;10.13;;;1.47;;
18449;SDS011;9354;50.194;7.690;2023-07-20T11:02:47;2.30;;;1.60;;
18449;SDS011;9354;50.194;7.690;2023-07-20T11:08:12;3.23;;;1.70;;
18449;SDS011;9354;50.194;7.690;2023-07-20T11:10:39;3.10;;;1.60;;
18449;SDS011;9354;50.194;7.690;2023-07-20T11:13:20;4.37;;;1.70;;
18449;SDS011;9354;50.194;7.690;2023-07-20T11:16:01;3.40;;;1.60;;
18449;SDS011;9354;50.194;7.690;2023-07-20T11:18:32;2.90;;;1.70;;
18449;SDS011;9354;50.194;7.690;2023-07-20T11:21:01;1.73;;;1.30;;
18449;SDS011;9354;50.194;7.690;2023-07-20T11:23:30;3.73;;;1.70;;
18449;SDS011;9354;50.194;7.690;2023-07-20T11:25:59;4.13;;;1.63;;
18449;SDS011;9354;50.194;7.690;2023-07-20T11:28:29;4.17;;;1.77;;
18449;SDS011;9354;50.194;7.690;2023-07-20T11:30:57;2.33;;;1.50;;
18449;SDS011;9354;50.194;7.690;2023-07-20T11:33:24;2.50;;;1.60;;
18449;SDS011;9354;50.194;7.690;2023-07-20T11:35:52;3.58;;;1.65;;
18449;SDS011;9354;50.194;7.690;2023-07-20T11:38:20;2.47;;;1.60;;
18449;SDS011;9354;50.194;7.690;2023-07-20T11:40:49;4.57;;;1.60;;
18449;SDS011;9354;50.194;7.690;2023-07-20T11:43:16;2.80;;;1.53;;
18449;SDS011;9354;50.194;7.690;2023-07-20T11:45:46;3.67;;;1.70;;
18449;SDS011;9354;50.194;7.690;2023-07-20T11:48:14;7.03;;;1.70;;
18449;SDS011;9354;50.194;7.690;2023-07-20T11:50:42;2.33;;;1.47;;
18449;SDS011;9354;50.194;7.690;2023-07-20T11:53:09;4.33;;;1.57;;
18449;SDS011;9354;50.194;7.690;2023-07-20T11:55:37;4.27;;;1.73;;
18449;SDS011;9354;50.194;7.690;2023-07-20T11:58:08;3.50;;;1.70;;
18449;SDS011;9354;50.194;7.690;2023-07-20T12:00:37;2.63;;;1.27;;
18449;SDS011;9354;50.194;7.690;2023-07-20T12:03:06;2.13;;;1.47;;
18449;SDS011;9354;50.194;7.690;2023-07-20T12:05:33;5.03;;;1.60;;
18449;SDS011;9354;50.194;7.690;2023-07-20T12:08:01;4.27;;;1.77;;
18449;SDS011;9354;50.194;7.690;2023-07-20T12:10:29;4.73;;;1.87;;
18449;SDS011;9354;50.194;7.690;2023-07-20T12:13:00;4.43;;;1.47;;
18449;SDS011;9354;50.194;7.690;2023-07-20T12:15:31;3.27;;;1.47;;
18449;SDS011;9354;50.194;7.690;2023-07-20T12:17:59;1.83;;;1.40;;
18449;SDS011;9354;50.194;7.690;2023-07-20T12:20:27;2.47;;;1.40;;
18449;SDS011;9354;50.194;7.690;2023-07-20T12:22:56;4.00;;;1.40;;
18449;SDS011;9354;50.194;7.690;2023-07-20T12:25:38;4.23;;;1.37;;
18449;SDS011;9354;50.194;7.690;2023-07-20T12:28:07;4.00;;;1.43;;
18449;SDS011;9354;50.194;7.690;2023-07-20T12:30:36;1.80;;;1.20;;
18449;SDS011;9354;50.194;7.690;2023-07-20T12:33:04;2.77;;;1.27;;
18449;SDS011;9354;50.194;7.690;2023-07-20T12:35:32;10.17;;;1.90;;
18449;SDS011;9354;50.194;7.690;2023-07-20T12:38:00;4.80;;;1.70;;
18449;SDS011;9354;50.194;7.690;2023-07-20T12:40:27;5.33;;;1.60;;
18449;SDS011;9354;50.194;7.690;2023-07-20T12:42:55;1.80;;;1.20;;
18449;SDS011;9354;50.194;7.690;2023-07-20T12:45:24;6.70;;;2.10;;
18449;SDS011;9354;50.194;7.690;2023-07-20T12:47:53;15.63;;;1.90;;
18449;SDS011;9354;50.194;7.690;2023-07-20T12:50:20;4.30;;;1.50;;
18449;SDS011;9354;50.194;7.690;2023-07-20T12:52:47;2.57;;;1.43;;
18449;SDS011;9354;50.194;7.690;2023-07-20T12:55:15;3.10;;;1.30;;
18449;SDS011;9354;50.194;7.690;2023-07-20T12:57:42;6.20;;;1.37;;
18449;SDS011;9354;50.194;7.690;2023-07-20T13:00:13;3.73;;;1.63;;
18449;SDS011;9354;50.194;7.690;2023-07-20T13:02:41;7.20;;;1.40;;
18449;SDS011;9354;50.194;7.690;2023-07-20T13:05:11;1.87;;;1.20;;
18449;SDS011;9354;50.194;7.690;2023-07-20T13:07:39;2.67;;;1.20;;
18449;SDS011;9354;50.194;7.690;2023-07-20T13:10:07;5.17;;;1.60;;
18449;SDS011;9354;50.194;7.690;2023-07-20T13:12:35;3.70;;;1.40;;
18449;SDS011;9354;50.194;7.690;2023-07-20T13:15:04;5.23;;;1.50;;
18449;SDS011;9354;50.194;7.690;2023-07-20T13:17:32;2.97;;;1.40;;
18449;SDS011;9354;50.194;7.690;2023-07-20T13:20:00;4.43;;;1.20;;
18449;SDS011;9354;50.194;7.690;2023-07-20T13:22:31;2.50;;;1.20;;
18449;SDS011;9354;50.194;7.690;2023-07-20T13:24:59;5.43;;;1.60;;
18449;SDS011;9354;50.194;7.690;2023-07-20T13:27:27;3.93;;;1.70;;
18449;SDS011;9354;50.194;7.690;2023-07-20T13:29:57;2.10;;;1.40;;
18449;SDS011;9354;50.194;7.690;2023-07-20T13:32:25;4.13;;;1.40;;
18449;SDS011;9354;50.194;7.690;2023-07-20T13:34:53;4.60;;;1.30;;
18449;SDS011;9354;50.194;7.690;2023-07-20T13:37:22;4.60;;;1.43;;
18449;SDS011;9354;50.194;7.690;2023-07-20T13:39:51;2.90;;;1.77;;
18449;SDS011;9354;50.194;7.690;2023-07-20T13:42:18;6.70;;;1.63;;
18449;SDS011;9354;50.194;7.690;2023-07-20T13:44:47;1.67;;;1.10;;
18449;SDS011;9354;50.194;7.690;2023-07-20T13:47:15;1.67;;;1.37;;
18449;SDS011;9354;50.194;7.690;2023-07-20T13:49:43;2.67;;;1.33;;
18449;SDS011;9354;50.194;7.690;2023-07-20T13:52:10;7.67;;;1.30;;
18449;SDS011;9354;50.194;7.690;2023-07-20T13:54:37;3.67;;;1.27;;
18449;SDS011;9354;50.194;7.690;2023-07-20T13:57:06;6.87;;;1.37;;
18449;SDS011;9354;50.194;7.690;2023-07-20T13:59:34;3.60;;;1.87;;
18449;SDS011;9354;50.194;7.690;2023-07-20T14:02:01;4.43;;;1.70;;
18449;SDS011;9354;50.194;7.690;2023-07-20T14:04:29;1.70;;;1.20;;
18449;SDS011;9354;50.194;7.690;2023-07-20T14:06:56;3.37;;;1.37;;
18449;SDS011;9354;50.194;7.690;2023-07-20T14:09:24;5.67;;;1.40;;
18449;SDS011;9354;50.194;7.690;2023-07-20T14:11:51;3.97;;;1.50;;
18449;SDS011;9354;50.194;7.690;2023-07-20T14:14:20;3.40;;;1.50;;
18449;SDS011;9354;50.194;7.690;2023-07-20T14:16:47;1.60;;;1.20;;
18449;SDS011;9354;50.194;7.690;2023-07-20T14:19:14;2.90;;;1.33;;
18449;SDS011;9354;50.194;7.690;2023-07-20T14:21:42;2.83;;;1.20;;
18449;SDS011;9354;50.194;7.690;2023-07-20T14:24:10;3.93;;;1.20;;
18449;SDS011;9354;50.194;7.690;2023-07-20T14:26:37;5.57;;;1.23;;
18449;SDS011;9354;50.194;7.690;2023-07-20T14:29:06;2.47;;;1.40;;
18449;SDS011;9354;50.194;7.690;2023-07-20T14:31:35;2.23;;;1.30;;
18449;SDS011;9354;50.194;7.690;2023-07-20T14:34:02;3.73;;;1.30;;
18449;SDS011;9354;50.194;7.690;2023-07-20T14:36:30;5.27;;;1.10;;
18449;SDS011;9354;50.194;7.690;2023-07-20T14:38:57;2.20;;;1.27;;
18449;SDS011;9354;50.194;7.690;2023-07-20T14:41:25;3.03;;;1.30;;
18449;SDS011;9354;50.194;7.690;2023-07-20T14:43:52;5.13;;;1.10;;
18449;SDS011;9354;50.194;7.690;2023-07-20T14:46:19;2.80;;;1.50;;
18449;SDS011;9354;50.194;7.690;2023-07-20T14:48:48;3.87;;;1.60;;
18449;SDS011;9354;50.194;7.690;2023-07-20T14:51:17;3.30;;;1.13;;
18449;SDS011;9354;50.194;7.690;2023-07-20T14:53:44;3.03;;;1.20;;
18449;SDS011;9354;50.194;7.690;2023-07-20T14:56:12;2.83;;;1.30;;
18449;SDS011;9354;50.194;7.690;2023-07-20T14:58:39;3.87;;;1.10;;
18449;SDS011;9354;50.194;7.690;2023-07-20T15:01:06;2.30;;;1.27;;
18449;SDS011;9354;50.194;7.690;2023-07-20T15:03:34;7.80;;;1.30;;
18449;SDS011;9354;50.194;7.690;2023-07-20T15:06:03;2.63;;;0.90;;
18449;SDS011;9354;50.194;7.690;2023-07-20T15:08:30;3.57;;;1.07;;
18449;SDS011;9354;50.194;7.690;2023-07-20T15:10:58;4.27;;;1.37;;
18449;SDS011;9354;50.194;7.690;2023-07-20T15:13:25;4.77;;;1.30;;